createdAt,value
2023-04-01T00:00:39.712Z,8.62
2023-04-01T00:03:44.084Z,8.57
2023-04-01T00:06:48.325Z,8.56
2023-04-01T00:09:51.295Z,8.52
2023-04-01T00:12:54.348Z,8.52
2023-04-01T00:15:57.739Z,8.50
2023-04-01T00:19:02.505Z,8.37
2023-04-01T00:22:05.421Z,8.42
2023-04-01T00:25:08.367Z,8.45
2023-04-01T00:28:11.400Z,8.39
2023-04-01T00:31:14.582Z,8.33
2023-04-01T00:34:17.846Z,8.26
2023-04-01T00:37:22.084Z,8.20
2023-04-01T00:40:32.851Z,8.10
2023-04-01T00:43:36.242Z,8.14
2023-04-01T00:46:39.214Z,8.02
2023-04-01T00:49:45.340Z,8.04
2023-04-01T00:52:48.564Z,7.91
2023-04-01T00:56:31.674Z,7.91
2023-04-01T00:59:43.742Z,7.87
2023-04-01T01:02:47.384Z,7.91
2023-04-01T01:06:08.739Z,7.81
2023-04-01T01:09:32.846Z,7.83
2023-04-01T01:12:42.191Z,7.85
2023-04-01T01:16:11.951Z,7.87
2023-04-01T01:19:44.882Z,7.87
2023-04-01T01:23:14.251Z,7.86
2023-04-01T01:26:27.527Z,7.84
2023-04-01T01:30:21.288Z,7.76
2023-04-01T01:33:31.607Z,7.74
2023-04-01T01:36:35.944Z,7.77
2023-04-01T01:39:40.812Z,7.75
2023-04-01T01:42:47.845Z,7.73
2023-04-01T01:45:55.002Z,7.72
2023-04-01T01:48:58.928Z,7.76
2023-04-01T01:52:02.596Z,7.80
2023-04-01T01:55:28.860Z,7.80
2023-04-01T01:58:41.732Z,7.81
2023-04-01T02:01:47.868Z,7.80
2023-04-01T02:04:51.610Z,7.83
2023-04-01T02:08:08.853Z,7.86
2023-04-01T02:11:14.003Z,7.54
2023-04-01T02:14:24.279Z,7.81
2023-04-01T02:17:31.619Z,7.86
2023-04-01T02:20:36.273Z,7.83
2023-04-01T02:23:39.688Z,7.79
2023-04-01T02:26:42.831Z,7.80
2023-04-01T02:29:45.984Z,7.81
2023-04-01T02:32:49.824Z,7.86
2023-04-01T02:35:52.455Z,7.87
2023-04-01T02:38:57.306Z,7.86
2023-04-01T02:41:59.903Z,7.89
2023-04-01T02:45:03.680Z,7.89
2023-04-01T02:48:06.790Z,7.92
2023-04-01T02:51:10.130Z,7.92
2023-04-01T02:54:12.690Z,7.91
2023-04-01T02:57:15.598Z,7.88
2023-04-01T03:00:18.568Z,7.84
2023-04-01T03:03:21.466Z,7.76
2023-04-01T03:06:24.403Z,7.74
2023-04-01T03:09:27.327Z,7.74
2023-04-01T03:12:29.928Z,7.69
2023-04-01T03:15:33.453Z,7.59
2023-04-01T03:18:36.364Z,7.52
2023-04-01T03:21:39.267Z,7.54
2023-04-01T03:24:41.875Z,7.55
2023-04-01T03:27:44.718Z,7.52
2023-04-01T03:30:47.452Z,7.50
2023-04-01T03:33:50.441Z,7.46
2023-04-01T03:36:53.243Z,7.49
2023-04-01T03:39:56.305Z,7.41
2023-04-01T03:42:58.968Z,7.33
2023-04-01T03:46:02.094Z,7.30
2023-04-01T03:49:12.687Z,7.27
2023-04-01T03:52:16.057Z,7.24
2023-04-01T03:55:19.084Z,7.22
2023-04-01T03:58:23.678Z,7.26
2023-04-01T04:01:27.302Z,7.27
2023-04-01T04:04:31.189Z,7.27
2023-04-01T04:07:35.757Z,7.26
2023-04-01T04:10:39.010Z,7.27
2023-04-01T04:13:42.392Z,7.28
2023-04-01T04:16:45.439Z,7.26
2023-04-01T04:19:48.110Z,7.33
2023-04-01T04:22:51.322Z,7.34
2023-04-01T04:25:59.390Z,7.38
2023-04-01T04:29:02.814Z,7.38
2023-04-01T04:32:07.285Z,7.35
2023-04-01T04:35:10.854Z,7.34
2023-04-01T04:38:13.672Z,7.31
2023-04-01T04:41:18.856Z,7.30
2023-04-01T04:44:23.286Z,7.29
2023-04-01T04:47:26.291Z,7.29
2023-04-01T04:50:29.085Z,7.26
2023-04-01T04:53:32.223Z,7.22
2023-04-01T04:56:34.865Z,7.29
2023-04-01T04:59:38.842Z,7.26
2023-04-01T05:02:41.886Z,7.23
2023-04-01T05:05:54.762Z,7.26
2023-04-01T05:08:57.943Z,7.28
2023-04-01T05:12:00.792Z,7.28
2023-04-01T05:15:06.327Z,7.29
2023-04-01T05:18:09.638Z,7.26
2023-04-01T05:21:14.333Z,7.29
2023-04-01T05:24:17.438Z,7.17
2023-04-01T05:27:20.432Z,7.26
2023-04-01T05:30:23.330Z,7.28
2023-04-01T05:33:27.449Z,7.29
2023-04-01T05:36:30.335Z,7.32
2023-04-01T05:39:33.102Z,7.37
2023-04-01T05:42:38.155Z,7.40
2023-04-01T05:45:41.086Z,7.44
2023-04-01T05:48:46.545Z,7.47
2023-04-01T05:51:49.476Z,7.53
2023-04-01T05:54:52.373Z,7.60
2023-04-01T05:57:55.059Z,7.64
2023-04-01T06:01:11.199Z,7.73
2023-04-01T06:04:19.047Z,7.78
2023-04-01T06:07:21.698Z,7.87
2023-04-01T06:10:39.159Z,7.96
2023-04-01T06:14:06.598Z,8.05
2023-04-01T06:17:46.984Z,8.13
2023-04-01T06:21:24.289Z,8.28
2023-04-01T06:25:17.364Z,8.39
2023-04-01T06:28:41.005Z,8.52
2023-04-01T06:32:28.393Z,8.65
2023-04-01T06:36:13.016Z,8.79
2023-04-01T06:39:24.772Z,8.90
2023-04-01T06:42:40.512Z,9.01
2023-04-01T06:45:49.887Z,9.06
2023-04-01T06:49:39.357Z,9.17
2023-04-01T06:53:24.642Z,9.33
2023-04-01T06:56:30.970Z,9.49
2023-04-01T06:59:36.490Z,9.60
2023-04-01T07:02:43.311Z,9.74
2023-04-01T07:05:46.809Z,9.84
2023-04-01T07:08:50.099Z,9.93
2023-04-01T07:11:54.847Z,10.02
2023-04-01T07:14:59.731Z,10.01
2023-04-01T07:18:12.045Z,10.13
2023-04-01T07:21:25.032Z,10.21
2023-04-01T07:24:33.462Z,10.31
2023-04-01T07:27:36.769Z,10.36
2023-04-01T07:30:54.840Z,10.52
2023-04-01T07:34:00.490Z,10.55
2023-04-01T07:37:06.468Z,10.54
2023-04-01T07:41:00.912Z,10.64
2023-04-01T07:44:20.050Z,10.70
2023-04-01T07:47:23.445Z,10.74
2023-04-01T07:50:38.047Z,11.05
2023-04-01T07:53:46.806Z,11.32
2023-04-01T07:57:00.456Z,11.46
2023-04-01T08:00:28.930Z,11.75
2023-04-01T08:03:51.211Z,12.11
2023-04-01T08:06:54.471Z,12.24
2023-04-01T08:10:06.592Z,12.50
2023-04-01T08:13:29.671Z,12.58
2023-04-01T08:16:37.630Z,12.53
2023-04-01T08:20:29.847Z,12.36
2023-04-01T08:23:49.813Z,12.15
2023-04-01T08:26:56.254Z,11.92
2023-04-01T08:30:05.356Z,11.86
2023-04-01T08:33:20.688Z,11.70
2023-04-01T08:36:32.781Z,11.71
2023-04-01T08:39:39.887Z,11.64
2023-04-01T08:43:08.238Z,11.69
2023-04-01T08:46:29.589Z,11.90
2023-04-01T08:49:41.497Z,12.20
2023-04-01T08:53:08.362Z,12.53
2023-04-01T08:56:34.910Z,12.57
2023-04-01T08:59:47.207Z,12.57
2023-04-01T09:02:54.877Z,12.94
2023-04-01T09:06:00.995Z,13.09
2023-04-01T09:09:34.903Z,12.95
2023-04-01T09:12:46.901Z,12.82
2023-04-01T09:15:58.708Z,13.19
2023-04-01T09:19:46.567Z,13.26
2023-04-01T09:23:08.201Z,13.30
2023-04-01T09:26:11.338Z,13.87
2023-04-01T09:29:49.988Z,14.21
2023-04-01T09:33:11.800Z,14.17
2023-04-01T09:36:33.298Z,14.48
2023-04-01T09:39:48.874Z,14.86
2023-04-01T09:43:20.645Z,15.01
2023-04-01T09:46:28.030Z,14.96
2023-04-01T09:49:56.963Z,14.68
2023-04-01T09:53:14.669Z,14.77
2023-04-01T09:56:36.289Z,15.03
2023-04-01T09:59:50.864Z,15.01
2023-04-01T10:02:58.467Z,15.05
2023-04-01T10:06:29.056Z,14.61
2023-04-01T10:10:00.968Z,14.89
2023-04-01T10:13:18.236Z,15.12
2023-04-01T10:16:24.526Z,14.78
2023-04-01T10:19:49.242Z,14.56
2023-04-01T10:23:11.285Z,14.18
2023-04-01T10:26:51.537Z,14.18
2023-04-01T10:30:14.880Z,13.79
2023-04-01T10:33:53.786Z,13.67
2023-04-01T10:36:59.072Z,14.00
2023-04-01T10:40:36.818Z,14.09
2023-04-01T10:43:44.460Z,14.04
2023-04-01T10:46:50.489Z,13.99
2023-04-01T10:50:18.022Z,14.05
2023-04-01T10:53:43.011Z,14.01
2023-04-01T10:57:11.361Z,13.91
2023-04-01T11:00:33.652Z,13.76
2023-04-01T11:03:47.529Z,13.83
2023-04-01T11:07:17.325Z,13.91
2023-04-01T11:10:47.737Z,14.19
2023-04-01T11:14:16.030Z,15.34
2023-04-01T11:17:43.812Z,15.73
2023-04-01T11:21:08.240Z,15.92
2023-04-01T11:24:16.857Z,16.32
2023-04-01T11:27:20.411Z,16.59
2023-04-01T11:31:02.359Z,17.13
2023-04-01T11:34:32.161Z,17.38
2023-04-01T11:37:53.652Z,17.66
2023-04-01T11:41:10.909Z,17.92
2023-04-01T11:44:28.226Z,17.81
2023-04-01T11:47:40.769Z,18.26
2023-04-01T11:50:56.337Z,18.13
2023-04-01T11:54:16.136Z,18.08
2023-04-01T11:57:40.424Z,17.83
2023-04-01T12:01:09.451Z,17.39
2023-04-01T12:04:37.791Z,17.62
2023-04-01T12:07:56.984Z,18.21
2023-04-01T12:11:05.813Z,18.84
2023-04-01T12:14:27.058Z,18.54
2023-04-01T12:17:35.881Z,18.38
2023-04-01T12:21:02.893Z,17.09
2023-04-01T12:24:27.155Z,16.47
2023-04-01T12:27:38.858Z,15.65
2023-04-01T12:31:19.137Z,14.95
2023-04-01T12:34:40.013Z,14.85
2023-04-01T12:38:21.763Z,15.29
2023-04-01T12:41:55.648Z,16.37
2023-04-01T12:45:16.642Z,17.03
2023-04-01T12:48:37.874Z,17.50
2023-04-01T12:51:59.724Z,17.75
2023-04-01T12:55:31.306Z,17.55
2023-04-01T12:58:52.440Z,17.85
2023-04-01T13:02:19.655Z,17.28
2023-04-01T13:05:49.382Z,16.71
2023-04-01T13:09:07.365Z,17.31
2023-04-01T13:12:28.306Z,17.49
2023-04-01T13:16:01.489Z,17.13
2023-04-01T13:19:22.462Z,17.28
2023-04-01T13:22:31.252Z,17.70
2023-04-01T13:25:39.814Z,17.83
2023-04-01T13:28:53.914Z,17.95
2023-04-01T13:32:01.334Z,17.82
2023-04-01T13:35:07.006Z,18.05
2023-04-01T13:38:18.385Z,18.17
2023-04-01T13:41:33.135Z,18.17
2023-04-01T13:44:42.665Z,18.42
2023-04-01T13:48:10.756Z,18.67
2023-04-01T13:51:37.751Z,18.58
2023-04-01T13:55:03.817Z,18.29
2023-04-01T13:58:41.591Z,17.56
2023-04-01T14:02:03.918Z,17.15
2023-04-01T14:05:45.006Z,16.66
2023-04-01T14:08:52.797Z,16.58
2023-04-01T14:12:17.312Z,16.34
2023-04-01T14:15:41.349Z,16.23
2023-04-01T14:19:10.844Z,16.13
2023-04-01T14:22:35.689Z,15.79
2023-04-01T14:26:15.979Z,15.77
2023-04-01T14:29:43.318Z,15.88
2023-04-01T14:33:17.832Z,16.03
2023-04-01T14:36:45.196Z,16.18
2023-04-01T14:40:12.844Z,16.31
2023-04-01T14:43:26.727Z,16.09
2023-04-01T14:47:01.420Z,15.82
2023-04-01T14:50:08.114Z,15.50
2023-04-01T14:53:22.014Z,15.19
2023-04-01T14:56:44.210Z,15.21
2023-04-01T14:59:50.833Z,15.14
2023-04-01T15:03:03.220Z,14.86
2023-04-01T15:06:40.535Z,14.71
2023-04-01T15:10:10.913Z,14.72
2023-04-01T15:13:19.906Z,14.71
2023-04-01T15:16:37.032Z,14.60
2023-04-01T15:20:18.748Z,14.48
2023-04-01T15:23:49.890Z,14.44
2023-04-01T15:26:56.436Z,14.43
2023-04-01T15:30:19.564Z,14.21
2023-04-01T15:33:49.557Z,13.99
2023-04-01T15:36:55.046Z,13.87
2023-04-01T15:40:00.787Z,13.82
2023-04-01T15:43:36.632Z,13.74
2023-04-01T15:46:48.954Z,13.67
2023-04-01T15:50:30.075Z,13.56
2023-04-01T15:53:46.233Z,13.58
2023-04-01T15:57:15.873Z,13.42
2023-04-01T16:00:25.756Z,13.36
2023-04-01T16:03:40.046Z,13.32
2023-04-01T16:07:17.916Z,13.18
2023-04-01T16:10:56.974Z,13.21
2023-04-01T16:14:21.289Z,13.09
2023-04-01T16:17:55.313Z,13.05
2023-04-01T16:21:01.059Z,12.98
2023-04-01T16:24:12.126Z,12.95
2023-04-01T16:27:23.792Z,12.90
2023-04-01T16:30:49.025Z,12.83
2023-04-01T16:34:05.068Z,12.76
2023-04-01T16:37:21.899Z,12.78
2023-04-01T16:40:27.497Z,12.78
2023-04-01T16:44:10.802Z,12.69
2023-04-01T16:47:17.000Z,12.64
2023-04-01T16:50:29.000Z,12.64
2023-04-01T16:53:43.989Z,12.63
2023-04-01T16:56:52.091Z,12.56
2023-04-01T16:59:56.310Z,12.57
2023-04-01T17:03:08.624Z,12.52
2023-04-01T17:06:26.390Z,12.47
2023-04-01T17:09:39.459Z,12.38
2023-04-01T17:12:52.617Z,12.33
2023-04-01T17:16:20.893Z,12.29
2023-04-01T17:19:51.431Z,12.16
2023-04-01T17:22:56.981Z,12.12
2023-04-01T17:26:26.469Z,12.00
2023-04-01T17:29:32.460Z,11.93
2023-04-01T17:33:13.215Z,11.84
2023-04-01T17:36:37.320Z,11.82
2023-04-01T17:39:50.969Z,11.93
2023-04-01T17:43:22.386Z,11.86
2023-04-01T17:46:40.771Z,11.75
2023-04-01T17:50:19.197Z,11.72
2023-04-01T17:53:31.017Z,11.62
2023-04-01T17:56:40.979Z,11.59
2023-04-01T18:00:11.374Z,11.52
2023-04-01T18:03:24.920Z,11.42
2023-04-01T18:06:47.744Z,11.36
2023-04-01T18:10:08.949Z,11.36
2023-04-01T18:13:12.288Z,11.35
2023-04-01T18:16:34.904Z,11.35
2023-04-01T18:20:04.764Z,11.32
2023-04-01T18:23:27.381Z,11.24
2023-04-01T18:26:32.180Z,11.17
2023-04-01T18:29:42.703Z,11.14
2023-04-01T18:32:52.790Z,11.11
2023-04-01T18:35:59.550Z,11.08
2023-04-01T18:39:29.618Z,11.06
2023-04-01T18:42:55.504Z,11.01
2023-04-01T18:46:01.513Z,10.88
2023-04-01T18:49:21.662Z,10.87
2023-04-01T18:52:44.469Z,10.86
2023-04-01T18:56:03.270Z,10.72
2023-04-01T18:59:12.016Z,10.66
2023-04-01T19:02:39.370Z,10.61
2023-04-01T19:05:47.486Z,10.57
2023-04-01T19:08:52.697Z,10.51
2023-04-01T19:12:19.459Z,10.53
2023-04-01T19:15:47.246Z,10.51
2023-04-01T19:19:15.389Z,10.47
2023-04-01T19:22:19.242Z,10.46
2023-04-01T19:25:41.912Z,10.44
2023-04-01T19:28:54.289Z,10.39
2023-04-01T19:32:18.072Z,10.33
2023-04-01T19:35:27.829Z,10.37
2023-04-01T19:38:38.932Z,10.35
2023-04-01T19:42:05.039Z,10.36
2023-04-01T19:45:19.151Z,10.31
2023-04-01T19:48:53.324Z,10.28
2023-04-01T19:52:32.581Z,10.26
2023-04-01T19:55:39.746Z,10.18
2023-04-01T19:59:03.978Z,10.22
2023-04-01T20:02:09.894Z,10.22
2023-04-01T20:05:35.369Z,10.21
2023-04-01T20:08:47.448Z,10.19
2023-04-01T20:11:57.159Z,10.16
2023-04-01T20:15:01.999Z,10.12
2023-04-01T20:18:22.344Z,10.12
2023-04-01T20:21:33.369Z,10.06
2023-04-01T20:24:43.587Z,10.05
2023-04-01T20:27:56.117Z,10.02
2023-04-01T20:31:24.438Z,10.02
2023-04-01T20:34:57.806Z,10.03
2023-04-01T20:38:10.115Z,10.01
2023-04-01T20:41:28.666Z,10.02
2023-04-01T20:45:12.934Z,9.98
2023-04-01T20:48:40.596Z,9.97
2023-04-01T20:52:09.272Z,9.98
2023-04-01T20:55:23.506Z,9.97
2023-04-01T20:58:51.871Z,9.95
2023-04-01T21:02:21.435Z,9.94
2023-04-01T21:05:39.592Z,9.89
2023-04-01T21:09:21.429Z,9.84
2023-04-01T21:12:49.716Z,9.78
2023-04-01T21:16:12.466Z,9.77
2023-04-01T21:19:52.801Z,9.71
2023-04-01T21:23:12.296Z,9.66
2023-04-01T21:26:53.264Z,9.61
2023-04-01T21:30:16.933Z,9.55
2023-04-01T21:33:57.403Z,9.48
2023-04-01T21:37:27.074Z,9.45
2023-04-01T21:41:19.624Z,9.42
2023-04-01T21:44:34.063Z,9.38
2023-04-01T21:47:55.714Z,9.37
2023-04-01T21:51:20.395Z,9.36
2023-04-01T21:54:46.279Z,9.34
2023-04-01T21:58:13.958Z,9.33
2023-04-01T22:01:50.732Z,9.31
2023-04-01T22:05:14.183Z,9.23
2023-04-01T22:08:16.776Z,9.10
2023-04-01T22:11:24.819Z,9.05
2023-04-01T22:14:38.003Z,8.98
2023-04-01T22:17:45.734Z,8.99
2023-04-01T22:20:58.334Z,9.03
2023-04-01T22:24:21.371Z,9.01
2023-04-01T22:27:47.068Z,8.98
2023-04-01T22:30:52.907Z,8.84
2023-04-01T22:34:29.545Z,8.75
2023-04-01T22:37:35.570Z,8.68
2023-04-01T22:41:27.270Z,8.66
2023-04-01T22:44:40.982Z,8.67
2023-04-01T22:47:53.589Z,8.67
2023-04-01T22:51:13.417Z,8.67
2023-04-01T22:54:24.955Z,8.60
2023-04-01T22:57:41.694Z,8.66
2023-04-01T23:00:46.757Z,8.61
2023-04-01T23:03:50.985Z,8.52
2023-04-01T23:07:01.659Z,8.46
2023-04-01T23:10:07.494Z,8.46
2023-04-01T23:13:18.110Z,8.46
2023-04-01T23:16:26.288Z,8.48
2023-04-01T23:19:42.918Z,8.47
2023-04-01T23:23:09.215Z,8.50
2023-04-01T23:26:18.999Z,8.48
2023-04-01T23:29:22.505Z,8.40
2023-04-01T23:32:28.915Z,8.43
2023-04-01T23:35:32.516Z,8.33
2023-04-01T23:38:38.125Z,8.25
2023-04-01T23:41:41.081Z,8.12
2023-04-01T23:44:44.868Z,8.01
2023-04-01T23:47:49.961Z,7.88
2023-04-01T23:50:52.920Z,7.73
2023-04-01T23:54:14.645Z,7.75
2023-04-01T23:57:21.854Z,7.70
